Flight Track Log - Related Links

Times and Time Zones

All times are in EDT time to prevent confusion due to time zone crossing. See the JBU56 flight status page for this flight to view local times or setup timezone preferences in your user account.

Time Position Orientation Groundspeed Altitude Reporting Facility
EDT Latitude Longitude Course Direction KTS MPH feet Rate Location/Type
Mon 09:10:21 AM 38.9667 -77.5167 76° East 173 199 2,100  Level Potomac TRACON
Mon 09:11:15 AM 39.0000 -77.5833 303° West 226 260 3,800 2,389 Climbing Potomac TRACON
Mon 09:12:00 AM 39.1786 -77.0626 74° East  Level Estimated
Mon 09:12:09 AM 39.0500 -77.6000 345° North 281 323 6,400  Level Potomac TRACON
Mon 09:13:00 AM 39.2362 -76.9629 90° East  Level Estimated
Mon 09:13:15 AM 39.1000 -77.5000 57° Northeast 283 326 9,900  Level Potomac TRACON
Mon 09:14:00 AM 39.2762 -76.8935 67° East  Level Estimated
Mon 09:14:15 AM 39.1500 -77.4000 57° Northeast 333 383 10,000  Level Potomac TRACON
Mon 09:15:00 AM 39.3161 -76.8240 76° East  Level Estimated
Mon 09:15:47 AM 39.1317 -77.2292 98° East 330 380 11,500  Level Washington Center
Mon 09:16:46 AM 39.0978 -77.1081 110° East 335 386 12,800 2,067 Climbing Washington Center
Mon 09:17:46 AM 39.0972 -76.9797 90° East 345 397 15,600 2,430 Climbing Washington Center
Mon 09:18:47 AM 39.1069 -76.8433 85° East 363 418 17,700 2,033 Climbing Washington Center
Mon 09:19:47 AM 39.1167 -76.7072 85° East 373 429 19,700 1,916 Climbing Washington Center
Mon 09:20:46 AM 39.1283 -76.5628 84° East 388 447 21,500 1,664 Climbing Washington Center
Mon 09:21:46 AM 39.1378 -76.4131 85° East 394 453 23,000 744 Climbing Washington Center
Mon 09:22:47 AM 39.1469 -76.2661 85° East 409 471 23,000  Level Washington Center
Mon 09:23:47 AM 39.1622 -76.1164 82° East 414 476 23,000 347 Level Washington Center
Mon 09:24:48 AM 39.1794 -75.9692 81° East 419 482 23,700 1,160 Climbing Washington Center
Mon 09:25:46 AM 39.2258 -75.8328 66° East 413 475 25,300 1,475 Climbing Washington Center
Mon 09:26:46 AM 39.3072 -75.7392 42° Northeast 411 473 26,600 1,289 Climbing Washington Center
Mon 09:27:47 AM 39.4031 -75.6131 45° Northeast 421 484 27,900 1,451 Climbing Washington Center
Mon 09:29:48 AM 39.5753 -75.3819 46° Northeast 456 525 31,000 1,028 Climbing New York Center
Mon 09:30:48 AM 39.6631 -75.2636 46° Northeast 451 519 31,000  Level New York Center
Mon 09:31:48 AM 39.7511 -75.1397 47° Northeast 459 528 31,000  Level New York Center
Mon 09:32:48 AM 39.8392 -75.0153 47° Northeast 459 528 31,000  Level New York Center
Mon 09:33:48 AM 39.9247 -74.8961 47° Northeast 453 521 31,000  Level New York Center
Mon 09:34:48 AM 40.0078 -74.7872 45° Northeast 453 521 31,000  Level New York Center
Mon 09:35:48 AM 40.0889 -74.6642 49° Northeast 453 521 31,000  Level New York Center
Mon 09:36:48 AM 40.1742 -74.5386 48° Northeast 453 521 31,000  Level New York Center
Mon 09:37:48 AM 40.2619 -74.3994 50° Northeast 458 527 31,000  Level New York Center
Mon 09:38:48 AM 40.3411 -74.2700 51° Northeast 458 527 31,000  Level New York Center
Mon 09:39:48 AM 40.4219 -74.1406 51° Northeast 458 527 31,000 -250 Level New York Center
Mon 09:40:48 AM 40.5047 -74.0108 50° Northeast 461 531 30,500 -900 Descending New York Center
Mon 09:41:48 AM 40.5831 -73.8833 51° Northeast 455 524 29,200 -1,479 Descending New York Center
Mon 09:44:19 AM 40.7669 -73.5953 50° Northeast 448 516 25,300 -1,507 Descending Boston Center
Mon 09:45:19 AM 40.8536 -73.4544 51° Northeast 416 479 23,900 -942 Descending Boston Center
Mon 09:46:20 AM 40.9325 -73.3733 38° Northeast 378 435 23,400 -871 Descending Boston Center
Mon 09:47:23 AM 41.0314 -73.3297 18° North 361 415 22,100 -1,161 Descending Boston Center
Mon 09:48:24 AM 41.1253 -73.2894 18° North 358 412 21,000 -545 Descending Boston Center
Mon 09:49:24 AM 41.1814 -73.2211 42° Northeast 350 403 21,000  Level Boston Center
Mon 09:50:26 AM 41.2258 -73.0775 68° East 350 403 21,000  Level Boston Center
Mon 09:51:26 AM 41.2617 -72.9578 68° East 349 402 21,000  Level Boston Center
Mon 09:52:31 AM 41.2997 -72.8386 67° East 349 402 21,000  Level Boston Center
Mon 09:53:32 AM 41.3372 -72.7186 67° East 348 400 21,000  Level Boston Center
Mon 09:54:32 AM 41.3744 -72.5989 67° East 349 402 21,000  Level Boston Center
Mon 09:55:33 AM 41.4111 -72.4792 68° East 348 400 21,000  Level Boston Center
Mon 09:56:36 AM 41.4561 -72.3367 67° East 348 400 21,000  Level Boston Center
Mon 09:57:37 AM 41.4922 -72.2161 68° East 348 400 21,000  Level Boston Center
Mon 09:58:37 AM 41.5128 -72.0933 77° East 348 400 21,000 -248 Level Boston Center
Mon 09:59:38 AM 41.4539 -71.9903 127° Southeast 355 409 20,500 -1,113 Descending Boston Center
Mon 10:00:41 AM 41.4694 -71.8664 80° East 347 399 18,700 -1,664 Descending Boston Center
Mon 10:01:55 AM 41.5372 -71.7500 52° Northeast 326 375 16,700 -1,733 Descending Boston Center
Mon 10:02:56 AM 41.5958 -71.6500 52° Northeast 319 367 14,800 -1,645 Descending Boston Center
Mon 10:03:59 AM 41.6486 -71.5600 52° Northeast 312 359 13,300 -1,500 Descending Boston Center
Mon 10:05:00 AM 41.6997 -71.4753 51° Northeast 298 343 11,700 -1,113 Descending Boston Center
Mon 10:06:03 AM 41.7472 -71.3775 57° Northeast 292 336 11,000 -339 Descending Boston Center
Mon 10:07:04 AM 41.7881 -71.2822 60° Northeast 295 339 11,000 -98 Level Boston Center
Mon 10:08:05 AM 41.8700 -71.2447 19° North 296 341 10,800 -446 Descending Boston Center
Mon 10:09:05 AM 41.9431 -71.2100 19° North 282 325 10,100 -1,016 Descending Boston Center
Mon 10:10:09 AM 42.0039 -71.1797 20° North 237 273 8,700 -1,597 Descending Boston Center
Mon 10:11:09 AM 42.0686 -71.1483 20° North 231 266 6,800 -1,736 Descending Boston Center
Mon 10:12:10 AM 42.1286 -71.1200 19° North 229 264 5,200 -1,500 Descending Boston Center
Mon 10:13:13 AM 42.1856 -71.0925 20° North 218 251 3,700 -1,317 Descending Boston Center
Mon 10:14:13 AM 42.2425 -71.0658 19° North 200 230 2,500 -1,082 Descending Boston Center
Mon 10:15:15 AM 42.2867 -71.0453 19° North 171 197 1,500 -836 Descending Boston Center
Mon 10:16:15 AM 42.3217 -71.0278 20° North 151 174 800 -488 Descending Boston Center
Mon 10:17:18 AM 42.3672 -71.0078 18° North 150 173 500 -286 Descending Boston Center

Login

Don't have an account? Register now (free) for customized features, flight alerts, and more!